Limon, CO

1:38 PM MDT on July 06, 2015 (GMT -0600)
Limon, CO | | Change Station
CLOSE
Current Station
Personal Weather Station
Location: Limon, CO
Elevation: 5361 ft
Nearby Weather Stations

Elev 5361 ft 39.27 °N, 103.68 °W | Updated 1 minute ago

Overcast
Overcast
61.3 °F
Feels Like 61.3 °F
N
7.0
Wind Variable Wind from NE
Gusts 17.0 mph

Today
High -- | Low -- °F
--% Chance of Precip.
Yesterday
High -- | Low -- °F
Precip. -- in
5:34 AM 8:24 PM
Waning Gibbous, 73% visible
Pressure 30.28 in
Visibility 10.0 miles
Clouds Mostly Cloudy 1400 ft
Overcast 2100 ft
Dew Point 56 °F
Humidity 83%
Rainfall 0.01 in
Snow Depth Not available.
UV 4 out of 12
Pollen 2.80 out of 12
Air Quality Not available.
Flu Activity Not available.
SPECI KLIC 061904Z AUTO 02013KT 10SM BKN014 OVC021 16/13 A3028 RMK AO2 T01610133

More Conditions Fewer Conditions

Pressure 30.28 in
Visibility 10.0 miles
Clouds Mostly Cloudy 1400 ft
Overcast 2100 ft
Dew Point 56 °F
Humidity 83%
Rainfall 0.01 in
Snow Depth Not available.
UV 4 out of 12
Pollen 2.80 out of 12
Air Quality Not available.
Flu Activity Not available.
SPECI KLIC 061904Z AUTO 02013KT 10SM BKN014 OVC021 16/13 A3028 RMK AO2 T01610133

More Conditions Fewer Conditions

10-Day Weather Forecast

×

Almanac

Astronomy

Jul. 06, 2015 Rise Set
Actual Time
Civil Twilight
Nautical Twilight
Astronomical Twilight
Moon
Length of Visible Light
Length of Day
Tomorrow will be .
, % of the Moon is Illuminated

Today's Extremes

State Highs State Lows

Community

WunderPhotos

Upload Photos

1,835,623 photos uploaded!

WunderBlogs® & News

Nearby

Air Quality

  Air Quality AQ Index Pollutant
Not available.

Snow Depth

Station Depth Elevation

Earthquake Activity

City Distance Mag. Time & Date
Minimum magnitude displayed is 2.5.

Coastal Water Temperatures

Place Temperature

Stations

Nearby Weather Stations

Station Location Temp. Windchill Dew Point Humidity Wind Precip. Elev Updated Type